Strona główna
METAR-TAF:

METAR-TAF

Lotnisko :

Yankton, Dakota Południowa, Stany Zjednoczone

Szerokość geograficzna: 42-55N, Długość geograficzna: 097-23W, wysokość: 398 m

Aktualna obserwacja pogody

Raport powstał 38 minut temu, godzina 08:56 UTC
Wiatr 11 kt od południowo-południowy wschód w porywach dochodzący do 18 kt
Temperatura 26°C
Wilgotność 79%
Ciśnienie 1007 hPa
Widzialność: 16.1 km
bezchmurnie

METAR: KYKN 070856Z AUTO 15011G18KT 10SM CLR 26/22 A2973 RMK AO2 SLP066 T02610222 57011

czas: 04:34 (09:34 UTC)


TAF: brakujący

Obserwacja i prognoza pogody dla ponad 4000 lotnisk (raport METAR i TAF).

Dostępne stacje oznaczono żółtymi i czerwonymi punktami na mapie.

Najedź kursorem aby zobaczyć nazwę stacji.

Kliknij aby zobaczyć obserwacje i prognozy pogody.

Aby zmienić mapę: kliknij na zielony przycisk z czarnym krzyżykiem, aby powiększyć; na zielony przycisk z myślnikiem, aby pomniejszyć; na zielone strzałki, aby przejść do map sąsiednich.


METAR-TAF: